Time;durP1;ratioP1;P1;durP2;ratioP2;P2;SDS_P1;SDS_P2;PMS_P1;PMS_P2;Temp;Humidity;BMP_temperature;BMP_pressure;BME280_temperature;BME280_humidity;BME280_pressure;Samples;Min_cycle;Max_cycle;Signal;HPM_P1;HPM_P2
2023/03/27 00:01:41;;;;;;;1.77;1.30;;;;;;;6.09;100.00;152926.53;5071793;28;20451;-83
2023/03/27 00:04:08;;;;;;;1.70;1.00;;;;;;;6.09;100.00;152925.22;5092014;28;20818;-83
2023/03/27 00:06:36;;;;;;;2.07;1.27;;;;;;;6.06;100.00;152918.78;5084258;28;20447;-83
2023/03/27 00:09:03;;;;;;;1.30;1.17;;;;;;;6.05;100.00;152916.25;5036184;28;20726;-82
2023/03/27 00:11:31;;;;;;;1.40;1.20;;;;;;;6.06;100.00;152918.78;5050177;28;21027;-83
2023/03/27 00:13:58;;;;;;;1.50;1.20;;;;;;;6.06;100.00;152917.53;5094339;28;20490;-83
2023/03/27 00:16:27;;;;;;;2.07;1.63;;;;;;;6.11;100.00;152931.72;5069670;28;20450;-83
2023/03/27 00:18:54;;;;;;;1.47;1.37;;;;;;;6.03;100.00;152911.09;5100333;28;20455;-83
2023/03/27 00:21:22;;;;;;;1.77;1.47;;;;;;;6.05;100.00;152914.94;5085416;28;20440;-83
2023/03/27 00:23:48;;;;;;;1.80;1.40;;;;;;;6.07;100.00;152921.38;5059600;28;20482;-82
2023/03/27 00:26:16;;;;;;;1.73;1.27;;;;;;;6.05;100.00;152914.94;5088951;28;20487;-82
2023/03/27 00:28:42;;;;;;;2.60;1.20;;;;;;;6.04;100.00;152913.63;5092424;28;20550;-83
2023/03/27 00:31:10;;;;;;;2.20;1.43;;;;;;;6.06;100.00;152917.53;5098742;28;20450;-83
2023/03/27 00:33:38;;;;;;;2.20;1.57;;;;;;;6.06;100.00;152917.53;5089449;28;20477;-83
2023/03/27 00:36:05;;;;;;;2.00;1.80;;;;;;;6.06;100.00;152918.78;5050668;28;20916;-83
2023/03/27 00:38:32;;;;;;;2.07;1.83;;;;;;;6.04;100.00;152913.63;5093626;28;20538;-83
2023/03/27 00:40:59;;;;;;;2.20;1.90;;;;;;;6.02;100.00;152908.50;5084389;28;20456;-83
2023/03/27 00:43:28;;;;;;;2.33;2.13;;;;;;;6.01;100.00;152905.88;5062042;28;20431;-83
2023/03/27 00:46:00;;;;;;;2.70;2.00;;;;;;;6.00;100.00;152902.03;5089984;28;20814;-82
2023/03/27 00:48:27;;;;;;;2.50;2.30;;;;;;;6.03;100.00;152911.09;5043452;28;20451;-82
2023/03/27 00:50:57;;;;;;;2.70;2.10;;;;;;;6.02;100.00;152908.50;5053965;28;21067;-82
2023/03/27 00:53:25;;;;;;;2.23;1.87;;;;;;;6.01;100.00;152905.88;5088123;28;20472;-82
2023/03/27 00:55:55;;;;;;;2.10;1.70;;;;;;;5.97;100.00;152894.28;5094641;28;20458;-82
2023/03/27 00:58:27;;;;;;;2.40;2.00;;;;;;;5.99;100.00;152899.44;5059368;28;20449;-83
2023/03/27 01:00:55;;;;;;;2.07;1.80;;;;;;;5.91;100.00;152880.09;5082004;28;20545;-83
2023/03/27 01:03:22;;;;;;;2.63;1.80;;;;;;;5.90;100.00;152876.25;5040789;28;20485;-83
2023/03/27 01:05:50;;;;;;;2.23;1.57;;;;;;;5.87;100.00;152869.81;5036103;28;20551;-82
2023/03/27 01:08:19;;;;;;;2.20;1.37;;;;;;;5.85;100.00;152863.38;5093082;28;20455;-83
2023/03/27 01:10:53;;;;;;;1.60;1.30;;;;;;;5.84;100.00;152862.00;5045175;28;20462;-83
2023/03/27 01:13:35;;;;;;;1.87;1.60;;;;;;;5.79;100.00;152849.13;5089273;28;20470;-83
2023/03/27 01:16:05;;;;;;;2.10;1.37;;;;;;;5.78;100.00;152845.22;5070391;28;20459;-83
2023/03/27 01:18:43;;;;;;;2.73;2.00;;;;;;;5.80;100.00;152850.44;5084980;28;20443;-83
2023/03/27 01:21:46;;;;;;;2.10;1.70;;;;;;;5.75;100.00;152838.78;5054416;28;20915;-83
2023/03/27 01:24:55;;;;;;;2.10;1.67;;;;;;;5.72;100.00;152831.03;5049991;28;20483;-83
2023/03/27 01:27:38;;;;;;;2.13;1.57;;;;;;;5.68;100.00;152820.75;5008987;28;20453;-83
2023/03/27 01:30:12;;;;;;;1.53;1.23;;;;;;;5.58;100.00;152794.97;5092782;28;20545;-83
2023/03/27 01:33:12;;;;;;;1.43;1.07;;;;;;;5.52;100.00;152779.47;5064459;28;20565;-83
2023/03/27 01:36:07;;;;;;;1.63;1.20;;;;;;;5.56;100.00;152789.75;5037214;28;20447;-83
2023/03/27 01:39:10;;;;;;;1.80;1.43;;;;;;;5.51;100.00;152776.88;5050152;28;20443;-83
2023/03/27 01:41:41;;;;;;;1.60;1.00;;;;;;;5.52;100.00;152780.78;5040096;28;20447;-83
2023/03/27 01:44:14;;;;;;;1.80;1.30;;;;;;;5.50;100.00;152774.31;5070221;28;20920;-83
2023/03/27 01:46:45;;;;;;;1.87;1.67;;;;;;;5.54;100.00;152784.63;5063739;28;21046;-83
2023/03/27 01:49:14;;;;;;;1.67;1.30;;;;;;;5.55;100.00;152787.22;5075671;28;20450;-83
2023/03/27 01:51:45;;;;;;;2.40;1.60;;;;;;;5.46;100.00;152765.28;5101747;28;20450;-83
2023/03/27 01:54:16;;;;;;;1.53;1.43;;;;;;;5.46;100.00;152765.28;5083974;28;20467;-83
2023/03/27 01:56:52;;;;;;;1.90;1.40;;;;;;;5.46;100.00;152765.28;5084316;28;20456;-83
2023/03/27 01:59:21;;;;;;;2.63;2.10;;;;;;;5.43;100.00;152756.25;5066923;28;20937;-83
2023/03/27 02:01:51;;;;;;;2.17;1.60;;;;;;;5.38;100.00;152744.66;5057109;28;20543;-83
2023/03/27 02:04:21;;;;;;;2.23;1.70;;;;;;;5.39;100.00;152747.25;5066964;28;20485;-83
2023/03/27 02:06:52;;;;;;;2.63;1.97;;;;;;;5.34;100.00;152733.06;5063819;28;20478;-83
2023/03/27 02:09:21;;;;;;;2.30;1.50;;;;;;;5.22;100.00;152702.09;5057666;28;20458;-83
2023/03/27 02:11:52;;;;;;;2.50;1.60;;;;;;;5.14;100.00;152681.47;5058200;28;20446;-83
2023/03/27 02:14:21;;;;;;;1.80;1.33;;;;;;;5.08;100.00;152667.34;5091254;28;20506;-83
2023/03/27 02:16:51;;;;;;;2.40;1.70;;;;;;;5.04;100.00;152655.69;5068484;28;20455;-83
2023/03/27 02:19:23;;;;;;;2.60;2.03;;;;;;;5.05;100.00;152659.59;5070494;28;20450;-83
2023/03/27 02:21:49;;;;;;;5.37;3.53;;;;;;;5.05;100.00;152658.31;5100803;28;20508;-83
2023/03/27 02:24:17;;;;;;;5.37;3.17;;;;;;;5.01;100.00;152647.97;5060512;28;20499;-84
2023/03/27 02:26:46;;;;;;;4.73;3.47;;;;;;;4.90;100.00;152622.19;5066147;28;20451;-83
2023/03/27 02:29:27;;;;;;;7.30;4.97;;;;;;;4.83;100.00;152602.88;5072933;28;20927;-84
2023/03/27 02:32:02;;;;;;;6.23;4.70;;;;;;;4.71;100.00;152573.22;5082350;28;20458;-84
2023/03/27 02:34:55;;;;;;;4.97;4.20;;;;;;;4.68;100.00;152565.53;5069841;28;20471;-83
2023/03/27 02:37:29;;;;;;;6.93;4.60;;;;;;;4.62;100.00;152550.06;5057739;28;20534;-83
2023/03/27 02:40:29;;;;;;;7.47;4.83;;;;;;;4.57;100.00;152537.19;5063473;28;20454;-83
2023/03/27 02:43:19;;;;;;;8.60;4.87;;;;;;;4.54;100.00;152528.13;5062450;28;20439;-83
2023/03/27 02:45:51;;;;;;;8.77;5.30;;;;;;;4.49;100.00;152516.56;5058912;28;20454;-82
2023/03/27 02:48:24;;;;;;;6.90;5.20;;;;;;;4.43;100.00;152499.78;5066748;28;20930;-83
2023/03/27 02:50:55;;;;;;;9.30;6.00;;;;;;;4.34;100.00;152477.94;5070111;28;20454;-82
2023/03/27 02:53:24;;;;;;;11.40;5.00;;;;;;;4.30;100.00;152468.91;5072100;28;20997;-83
2023/03/27 02:55:53;;;;;;;10.20;5.60;;;;;;;4.26;100.00;152458.56;5086909;28;20717;-83
2023/03/27 02:58:29;;;;;;;9.80;6.37;;;;;;;4.20;100.00;152443.16;5036978;28;20961;-82
2023/03/27 03:01:08;;;;;;;7.63;5.50;;;;;;;4.18;100.00;152436.72;5079018;28;20443;-82
2023/03/27 03:03:57;;;;;;;9.80;6.30;;;;;;;4.19;100.00;152439.25;5060431;28;20949;-83
2023/03/27 03:06:50;;;;;;;9.13;6.10;;;;;;;4.15;100.00;152430.28;5071491;28;20446;-82
2023/03/27 03:09:17;;;;;;;10.37;7.17;;;;;;;4.17;100.00;152434.13;5058489;28;20821;-83
2023/03/27 03:11:46;;;;;;;9.20;5.57;;;;;;;4.11;100.00;152418.66;5041304;28;20451;-82
2023/03/27 03:14:15;;;;;;;9.43;6.40;;;;;;;4.05;100.00;152403.22;5077717;28;20463;-83
2023/03/27 03:16:42;;;;;;;9.67;5.87;;;;;;;4.05;100.00;152403.22;5063651;28;20454;-82
2023/03/27 03:19:09;;;;;;;8.70;5.53;;;;;;;4.04;100.00;152400.63;5093509;28;20456;-83
2023/03/27 03:21:36;;;;;;;8.13;6.10;;;;;;;3.99;100.00;152387.75;5051327;28;20541;-83
2023/03/27 03:24:03;;;;;;;9.77;5.70;;;;;;;3.90;100.00;152364.56;5080904;28;20475;-83
2023/03/27 03:26:31;;;;;;;10.27;6.23;;;;;;;3.84;100.00;152349.16;5051224;28;20469;-83
2023/03/27 03:28:59;;;;;;;11.13;7.00;;;;;;;3.89;100.00;152362.00;5061561;28;20453;-83
2023/03/27 03:31:41;;;;;;;7.30;5.47;;;;;;;3.77;100.00;152331.09;5063287;28;20439;-84
2023/03/27 03:34:08;;;;;;;8.97;6.60;;;;;;;3.72;100.00;152318.22;5074510;28;20460;-83
2023/03/27 03:36:35;;;;;;;10.20;5.00;;;;;;;3.63;100.00;152297.63;5078517;28;20459;-84
2023/03/27 03:39:03;;;;;;;12.57;6.30;;;;;;;3.63;100.00;152297.63;5094468;28;20455;-83
2023/03/27 03:41:30;;;;;;;11.70;6.00;;;;;;;3.68;100.00;152310.50;5036323;28;20478;-83
2023/03/27 03:44:00;;;;;;;8.40;6.13;;;;;;;3.72;100.00;152318.22;5057975;28;20482;-84
2023/03/27 03:46:28;;;;;;;11.70;6.10;;;;;;;3.66;100.00;152305.34;5045289;28;20538;-83
2023/03/27 03:48:55;;;;;;;9.40;6.43;;;;;;;3.66;100.00;152305.34;5064389;28;20933;-83
2023/03/27 03:51:22;;;;;;;9.50;5.80;;;;;;;3.74;100.00;152323.34;5079871;28;20448;-83
2023/03/27 03:53:48;;;;;;;11.10;5.83;;;;;;;3.72;100.00;152319.50;5044577;28;20493;-83
2023/03/27 03:56:16;;;;;;;8.33;5.50;;;;;;;3.66;100.00;152305.34;5091955;28;20455;-83
2023/03/27 03:58:43;;;;;;;10.40;5.83;;;;;;;3.62;100.00;152295.06;5037921;28;20529;-83
2023/03/27 04:01:09;;;;;;;10.13;5.53;;;;;;;3.69;100.00;152313.09;5090566;28;20459;-83
2023/03/27 04:03:46;;;;;;;7.87;4.97;;;;;;;3.64;100.00;152300.22;5036532;28;20816;-83
2023/03/27 04:06:16;;;;;;;9.33;5.03;;;;;;;3.64;100.00;152300.22;5098675;28;20446;-83
2023/03/27 04:08:43;;;;;;;9.27;4.53;;;;;;;3.62;100.00;152295.06;5065643;28;20447;-83
2023/03/27 04:11:30;;;;;;;6.00;3.97;;;;;;;3.54;100.00;152274.47;5102816;28;20454;-84
2023/03/27 04:14:11;;;;;;;10.43;6.00;;;;;;;3.54;100.00;152274.47;5076322;28;20479;-83
2023/03/27 04:16:42;;;;;;;11.73;4.73;;;;;;;3.47;100.00;152256.44;5077608;28;20558;-83
2023/03/27 04:19:24;;;;;;;5.20;3.97;;;;;;;3.39;100.00;152234.59;5088103;28;20454;-83
2023/03/27 04:22:01;;;;;;;5.83;4.27;;;;;;;3.34;100.00;152221.66;5052580;28;20453;-84
2023/03/27 04:24:30;;;;;;;6.43;4.30;;;;;;;3.29;100.00;152210.09;5065177;28;20445;-83
2023/03/27 04:26:59;;;;;;;8.30;4.70;;;;;;;3.25;100.00;152199.81;5061082;28;20450;-83
2023/03/27 04:29:29;;;;;;;14.07;4.67;;;;;;;3.24;100.00;152195.94;5058890;28;20448;-83
2023/03/27 04:31:59;;;;;;;8.97;4.37;;;;;;;3.22;100.00;152190.81;5064809;28;20458;-83
2023/03/27 04:34:56;;;;;;;8.90;4.53;;;;;;;3.23;100.00;152194.63;5054931;28;20836;-83
2023/03/27 04:37:46;;;;;;;6.80;4.57;;;;;;;3.17;100.00;152179.22;5046999;28;20557;-83
2023/03/27 04:40:32;;;;;;;7.20;4.20;;;;;;;3.14;100.00;152171.50;5074223;28;20453;-83
2023/03/27 04:42:58;;;;;;;8.00;4.27;;;;;;;3.11;100.00;152162.47;5068298;28;20438;-83
2023/03/27 04:45:26;;;;;;;6.90;4.10;;;;;;;3.07;100.00;152153.50;5058229;28;21017;-83
2023/03/27 04:47:53;;;;;;;5.00;3.60;;;;;;;3.10;100.00;152161.19;5072192;28;20529;-83
2023/03/27 04:50:21;;;;;;;6.43;4.40;;;;;;;3.12;100.00;152165.06;5058003;28;20463;-83
2023/03/27 04:52:48;;;;;;;6.80;3.70;;;;;;;3.09;100.00;152158.66;5062141;28;20453;-83
2023/03/27 04:55:15;;;;;;;6.53;3.30;;;;;;;3.07;100.00;152153.50;5052783;28;20481;-83
2023/03/27 04:57:47;;;;;;;7.97;3.37;;;;;;;3.03;100.00;152144.47;5083581;28;20458;-83
2023/03/27 05:00:17;;;;;;;4.23;2.80;;;;;;;2.99;100.00;152132.91;5074069;28;20465;-83
2023/03/27 05:02:44;;;;;;;9.57;3.53;;;;;;;2.89;100.00;152107.16;5095815;28;20941;-84
2023/03/27 05:05:21;;;;;;;7.53;2.87;;;;;;;2.79;100.00;152081.44;5063013;28;20461;-84
2023/03/27 05:07:49;;;;;;;4.33;2.80;;;;;;;2.77;100.00;152076.28;5056082;28;20446;-84
2023/03/27 05:10:22;;;;;;;5.50;2.13;;;;;;;2.71;100.00;152060.84;5073880;28;20477;-84
2023/03/27 05:12:51;;;;;;;4.37;2.70;;;;;;;2.75;100.00;152071.16;5037469;28;20451;-84
2023/03/27 05:15:19;;;;;;;6.63;2.50;;;;;;;2.70;100.00;152059.56;5038597;28;20514;-84
2023/03/27 05:17:51;;;;;;;3.07;2.03;;;;;;;2.68;100.00;152053.13;5055019;28;20482;-84
2023/03/27 05:20:21;;;;;;;4.03;2.57;;;;;;;2.61;100.00;152036.44;5036287;28;20884;-83
2023/03/27 05:22:48;;;;;;;5.30;2.50;;;;;;;2.58;100.00;152027.41;5040956;28;20477;-83
2023/03/27 05:25:21;;;;;;;4.30;2.00;;;;;;;2.57;100.00;152026.13;5068010;28;20489;-83
2023/03/27 05:27:49;;;;;;;2.90;2.00;;;;;;;2.55;100.00;152019.69;5039789;28;20543;-84
2023/03/27 05:30:19;;;;;;;3.90;2.20;;;;;;;2.46;100.00;151999.09;5072430;28;20447;-83
2023/03/27 05:32:50;;;;;;;5.33;2.20;;;;;;;2.35;100.00;151970.84;5051466;28;20447;-84
2023/03/27 05:35:27;;;;;;;4.83;2.90;;;;;;;2.29;100.00;151954.13;5056619;28;20506;-83
2023/03/27 05:37:56;;;;;;;4.20;1.90;;;;;;;2.28;100.00;151951.53;5035203;28;20438;-84
2023/03/27 05:40:31;;;;;;;2.83;2.07;;;;;;;2.32;100.00;151963.13;5033517;28;20563;-84
2023/03/27 05:42:58;;;;;;;6.20;2.30;;;;;;;2.33;100.00;151964.44;5034873;28;20455;-84
2023/03/27 05:45:28;;;;;;;3.77;2.40;;;;;;;2.26;100.00;151947.69;5037597;28;20541;-83
2023/03/27 05:47:56;;;;;;;3.33;1.97;;;;;;;2.29;100.00;151954.13;5065294;28;20454;-84
2023/03/27 05:50:27;;;;;;;3.70;2.00;;;;;;;2.25;100.00;151945.09;5058107;28;20474;-84
2023/03/27 05:52:55;;;;;;;3.57;2.20;;;;;;;2.23;100.00;151939.97;5038636;28;20851;-84
2023/03/27 05:55:28;;;;;;;5.43;2.43;;;;;;;2.20;100.00;151932.25;5057278;28;20488;-84
2023/03/27 05:57:56;;;;;;;6.50;2.17;;;;;;;2.19;100.00;151929.72;5070171;28;20449;-83
2023/03/27 06:00:24;;;;;;;3.73;2.23;;;;;;;2.20;100.00;151932.25;5072556;28;20584;-83
2023/03/27 06:02:53;;;;;;;3.90;2.20;;;;;;;2.17;100.00;151923.28;5086870;28;20844;-83
2023/03/27 06:05:20;;;;;;;3.83;2.03;;;;;;;2.20;100.00;151930.94;5070033;28;20818;-83
2023/03/27 06:07:51;;;;;;;11.77;2.17;;;;;;;2.15;100.00;151919.41;5069224;28;20561;-83
2023/03/27 06:10:19;;;;;;;4.80;1.90;;;;;;;2.15;100.00;151918.09;5034831;28;20463;-83
2023/03/27 06:13:02;;;;;;;4.70;1.97;;;;;;;2.14;100.00;151916.84;5055049;28;20449;-83
2023/03/27 06:15:37;;;;;;;2.90;1.80;;;;;;;2.12;100.00;151911.69;5062145;28;20493;-83
2023/03/27 06:18:18;;;;;;;2.60;2.00;;;;;;;2.12;100.00;151910.44;5079615;28;20446;-83
2023/03/27 06:20:44;;;;;;;4.20;2.50;;;;;;;2.08;100.00;151901.41;5057931;28;20451;-83
2023/03/27 06:23:13;;;;;;;5.83;1.70;;;;;;;2.10;100.00;151906.53;5039290;28;20467;-84
2023/03/27 06:25:42;;;;;;;3.73;2.37;;;;;;;2.11;100.00;151909.13;5059497;28;20446;-83
2023/03/27 06:28:11;;;;;;;5.70;2.40;;;;;;;2.14;100.00;151915.56;5088850;28;20457;-84
2023/03/27 06:30:44;;;;;;;5.80;3.13;;;;;;;2.10;100.00;151905.25;5076305;28;20512;-83
2023/03/27 06:33:39;;;;;;;3.90;1.97;;;;;;;2.09;100.00;151903.94;5057577;28;20542;-83
2023/03/27 06:36:08;;;;;;;7.07;2.03;;;;;;;2.03;100.00;151888.56;5042781;28;20454;-83
2023/03/27 06:38:38;;;;;;;5.23;2.73;;;;;;;2.04;100.00;151891.09;5072215;28;20446;-83
2023/03/27 06:41:05;;;;;;;4.13;1.70;;;;;;;2.07;100.00;151898.81;5080296;28;20450;-83
2023/03/27 06:43:51;;;;;;;4.50;1.70;;;;;;;2.08;100.00;151901.41;5057265;28;20529;-83
2023/03/27 06:46:47;;;;;;;4.20;2.20;;;;;;;2.07;100.00;151898.81;5054331;28;20447;-83
2023/03/27 06:49:21;;;;;;;4.17;2.17;;;;;;;2.05;98.95;151892.41;5044457;28;20457;-83
2023/03/27 06:51:47;;;;;;;4.63;2.20;;;;;;;2.08;100.00;151901.41;5073963;28;20449;-83
2023/03/27 06:54:16;;;;;;;2.53;1.80;;;;;;;2.09;100.00;151903.94;5041178;28;20467;-83
2023/03/27 06:56:50;;;;;;;4.10;1.90;;;;;;;2.07;99.04;151898.81;5037599;28;20438;-83
2023/03/27 06:59:21;;;;;;;3.40;2.00;;;;;;;2.09;100.00;151903.94;5042653;28;20512;-83
2023/03/27 07:01:52;;;;;;;7.10;2.57;;;;;;;2.14;100.00;151916.84;5040485;28;20787;-83
2023/03/27 07:04:37;;;;;;;5.00;2.07;;;;;;;2.15;100.00;151918.09;5090215;28;20616;-83
2023/03/27 07:07:16;;;;;;;6.53;1.70;;;;;;;2.16;100.00;151920.69;5073090;28;20450;-83
2023/03/27 07:09:44;;;;;;;4.60;1.93;;;;;;;2.20;100.00;151932.25;5037079;28;20452;-83
2023/03/27 07:12:14;;;;;;;7.17;2.10;;;;;;;2.17;99.49;151924.53;5073702;28;20933;-83
2023/03/27 07:14:43;;;;;;;7.57;2.37;;;;;;;2.18;99.59;151925.81;5056619;28;20509;-83
2023/03/27 07:17:10;;;;;;;2.13;1.50;;;;;;;2.19;100.00;151929.72;5053955;28;20906;-83
2023/03/27 07:19:52;;;;;;;3.40;2.00;;;;;;;2.31;100.00;151960.53;5073816;28;20450;-83
2023/03/27 07:22:23;;;;;;;4.33;1.90;;;;;;;2.34;100.00;151968.25;5040068;28;20876;-84
2023/03/27 07:24:51;;;;;;;4.47;1.80;;;;;;;2.36;99.03;151972.09;5041696;28;20451;-83
2023/03/27 07:27:19;;;;;;;2.90;2.10;;;;;;;2.39;100.00;151979.81;5043259;28;20538;-83
2023/03/27 07:29:46;;;;;;;4.63;1.90;;;;;;;2.38;99.60;151978.53;5075816;28;20516;-83
2023/03/27 07:32:20;;;;;;;3.50;1.93;;;;;;;2.33;98.14;151965.66;5054390;28;20877;-83
2023/03/27 07:34:51;;;;;;;4.40;2.03;;;;;;;2.33;97.57;151965.66;5071867;28;20471;-82
2023/03/27 07:37:37;;;;;;;3.27;1.70;;;;;;;2.40;97.19;151983.72;5088688;28;20457;-82
2023/03/27 07:40:25;;;;;;;3.43;1.60;;;;;;;2.59;99.10;152031.28;5093298;28;20808;-82
2023/03/27 07:43:15;;;;;;;3.13;1.83;;;;;;;2.64;93.98;152042.84;5086578;28;20446;-82
2023/03/27 07:45:43;;;;;;;5.00;2.23;;;;;;;2.71;91.73;152060.84;5072131;28;20461;-82
2023/03/27 07:48:13;;;;;;;2.70;1.70;;;;;;;2.76;94.61;152075.00;5055751;28;20455;-82
2023/03/27 07:50:41;;;;;;;4.30;1.60;;;;;;;2.84;97.31;152094.28;5087396;28;20442;-82
2023/03/27 07:53:08;;;;;;;3.30;2.00;;;;;;;2.88;95.67;152104.59;5032774;28;20901;-82
2023/03/27 07:55:36;;;;;;;6.23;1.90;;;;;;;2.85;91.81;152098.19;4998828;28;20480;-82
2023/03/27 07:58:06;;;;;;;6.53;2.17;;;;;;;2.92;95.07;152116.16;5003457;28;21058;-82
2023/03/27 08:00:35;;;;;;;2.83;2.00;;;;;;;3.00;92.63;152135.47;5013760;28;20468;-82
2023/03/27 08:03:10;;;;;;;5.97;2.03;;;;;;;3.09;91.80;152158.66;5018413;28;20868;-82
2023/03/27 08:05:42;;;;;;;3.60;1.87;;;;;;;3.08;91.10;152157.34;5012661;28;20455;-82
2023/03/27 08:08:11;;;;;;;5.00;1.90;;;;;;;3.13;91.48;152168.91;5000041;28;20456;-82
2023/03/27 08:10:47;;;;;;;5.17;1.70;;;;;;;3.17;92.64;152179.22;4999378;28;21156;-82
2023/03/27 08:13:16;;;;;;;3.30;1.93;;;;;;;3.24;93.23;152195.94;5018713;28;20959;-83
2023/03/27 08:15:43;;;;;;;3.33;1.70;;;;;;;3.35;90.19;152224.25;5001280;28;20472;-82
2023/03/27 08:18:20;;;;;;;4.87;2.10;;;;;;;3.40;88.90;152238.41;5007723;28;20966;-82
2023/03/27 08:20:48;;;;;;;2.53;1.40;;;;;;;3.48;91.10;152259.00;5013513;28;20479;-82
2023/03/27 08:23:15;;;;;;;3.53;1.70;;;;;;;3.52;90.43;152268.03;5011761;28;20583;-82
2023/03/27 08:25:42;;;;;;;4.43;2.33;;;;;;;3.54;91.12;152274.47;5015760;28;20441;-83
2023/03/27 08:28:10;;;;;;;4.30;1.97;;;;;;;3.56;87.69;152279.63;5015664;28;20534;-82
2023/03/27 08:30:40;;;;;;;2.10;1.60;;;;;;;3.58;89.97;152284.75;4997770;28;20859;-82
2023/03/27 08:33:08;;;;;;;4.27;1.90;;;;;;;3.60;90.24;152289.88;4997228;28;20456;-82
2023/03/27 08:35:35;;;;;;;7.43;2.73;;;;;;;3.56;86.70;152279.63;4999450;28;20468;-82
2023/03/27 08:38:03;;;;;;;5.30;1.70;;;;;;;3.69;88.31;152313.09;4997242;28;20453;-82
2023/03/27 08:40:51;;;;;;;3.53;1.80;;;;;;;3.77;86.53;152332.38;5016279;28;20574;-82
2023/03/27 08:43:29;;;;;;;5.07;1.90;;;;;;;3.66;84.53;152305.34;4999020;28;20827;-82
2023/03/27 08:45:58;;;;;;;5.40;1.90;;;;;;;3.76;88.88;152328.53;5001189;28;20444;-82
2023/03/27 08:48:30;;;;;;;3.63;1.70;;;;;;;3.77;86.32;152332.38;4995952;28;20863;-82
2023/03/27 08:51:00;;;;;;;3.67;1.50;;;;;;;3.92;88.42;152369.75;5000598;28;20567;-82
2023/03/27 08:53:32;;;;;;;3.73;1.83;;;;;;;4.01;85.76;152392.91;5007970;28;20531;-82
2023/03/27 08:56:02;;;;;;;2.93;1.80;;;;;;;4.06;79.79;152407.06;5007399;28;20474;-82
2023/03/27 08:58:38;;;;;;;2.60;1.63;;;;;;;4.01;81.24;152392.91;5014364;28;20440;-82
2023/03/27 09:01:19;;;;;;;2.30;1.40;;;;;;;3.94;76.53;152376.19;5000210;28;20480;-82
2023/03/27 09:03:51;;;;;;;3.60;1.80;;;;;;;4.01;81.77;152392.91;4998394;28;20935;-82
2023/03/27 09:06:24;;;;;;;2.60;1.90;;;;;;;4.18;88.00;152436.72;5014141;28;20514;-82
2023/03/27 09:08:59;;;;;;;3.47;1.40;;;;;;;4.24;76.52;152452.13;4998898;28;20451;-82
2023/03/27 09:11:35;;;;;;;6.47;1.60;;;;;;;4.11;75.02;152418.66;5002400;28;20444;-82
2023/03/27 09:14:15;;;;;;;2.60;1.97;;;;;;;4.11;78.32;152418.66;5004808;28;20877;-82
2023/03/27 09:16:47;;;;;;;1.77;1.27;;;;;;;4.18;77.11;152437.97;4998866;28;20959;-82
2023/03/27 09:19:29;;;;;;;3.00;1.90;;;;;;;4.31;80.69;152470.19;5005313;28;20453;-82
2023/03/27 09:22:00;;;;;;;2.90;1.77;;;;;;;4.35;73.53;152480.47;5014007;28;20468;-82
2023/03/27 09:24:47;;;;;;;4.87;1.50;;;;;;;4.33;71.08;152475.34;4997462;28;20486;-82
2023/03/27 09:27:43;;;;;;;4.83;1.33;;;;;;;4.28;72.56;152462.47;4998152;28;20482;-82
2023/03/27 09:30:30;;;;;;;3.13;1.40;;;;;;;4.15;73.29;152430.28;5015626;28;20467;-81
2023/03/27 09:33:03;;;;;;;4.43;2.00;;;;;;;4.19;76.51;152439.25;5001067;28;20446;-81
2023/03/27 09:35:31;;;;;;;1.63;1.10;;;;;;;4.29;75.77;152465.00;5014453;28;20472;-82
2023/03/27 09:38:00;;;;;;;4.93;1.53;;;;;;;4.44;80.93;152503.69;4997183;28;20444;-81
2023/03/27 09:40:32;;;;;;;3.50;1.40;;;;;;;4.46;70.87;152508.81;4998835;28;20998;-81
2023/03/27 09:43:06;;;;;;;2.37;1.60;;;;;;;4.46;70.40;152508.81;5005242;28;21073;-81
2023/03/27 09:45:38;;;;;;;2.60;1.70;;;;;;;4.48;75.49;152512.66;5012900;28;20547;-81
2023/03/27 09:48:08;;;;;;;2.30;1.10;;;;;;;4.44;73.09;152502.38;4996552;28;20948;-81
2023/03/27 09:50:43;;;;;;;4.23;1.30;;;;;;;4.38;72.48;152486.91;5017960;28;20541;-81
2023/03/27 09:53:19;;;;;;;2.50;1.47;;;;;;;4.50;73.29;152519.09;5017223;28;20440;-81
2023/03/27 09:56:04;;;;;;;4.33;1.30;;;;;;;4.62;73.25;152548.75;5010093;28;20987;-81
2023/03/27 09:58:39;;;;;;;2.63;1.60;;;;;;;4.64;70.66;152553.91;5020160;28;20444;-82
2023/03/27 10:01:15;;;;;;;3.30;1.43;;;;;;;4.73;73.62;152577.13;5008331;28;20445;-82
2023/03/27 10:03:49;;;;;;;10.57;1.97;;;;;;;4.89;80.56;152618.34;5010342;28;20444;-82
2023/03/27 10:06:25;;;;;;;4.37;1.53;;;;;;;4.97;72.11;152638.97;5005762;28;20514;-82
2023/03/27 10:09:21;;;;;;;5.43;1.53;;;;;;;4.96;69.56;152635.06;5003146;28;20452;-82
2023/03/27 10:11:49;;;;;;;2.17;1.30;;;;;;;4.87;68.64;152614.47;5020639;28;20445;-82
2023/03/27 10:14:25;;;;;;;2.03;1.20;;;;;;;4.80;68.34;152595.13;5018455;28;20503;-82
2023/03/27 10:16:53;;;;;;;3.73;1.60;;;;;;;4.85;68.49;152608.03;5020258;28;20499;-82
2023/03/27 10:19:23;;;;;;;2.03;0.90;;;;;;;4.90;66.12;152622.19;5015898;28;20488;-82
2023/03/27 10:21:51;;;;;;;5.00;1.23;;;;;;;4.95;65.98;152632.53;5018723;28;20560;-83
2023/03/27 10:24:28;;;;;;;2.77;1.60;;;;;;;4.96;74.13;152635.06;5007834;28;20484;-82
2023/03/27 10:27:19;;;;;;;2.07;1.50;;;;;;;5.03;72.53;152653.16;5011261;28;20449;-81
2023/03/27 10:30:26;;;;;;;3.10;1.43;;;;;;;5.22;73.88;152702.09;5016468;28;20479;-82
2023/03/27 10:32:57;;;;;;;5.80;1.70;;;;;;;5.22;76.26;152702.09;5026905;28;20830;-82
2023/03/27 10:35:44;;;;;;;3.40;1.40;;;;;;;5.17;71.74;152689.22;5017898;28;20477;-82
2023/03/27 10:38:32;;;;;;;1.83;1.10;;;;;;;5.13;67.45;152680.22;5018162;28;20461;-81
2023/03/27 10:41:13;;;;;;;4.37;1.30;;;;;;;5.07;63.94;152664.75;5000905;28;20456;-82
2023/03/27 10:43:48;;;;;;;3.10;1.70;;;;;;;5.01;63.99;152647.97;5015365;28;20499;-81
2023/03/27 10:46:17;;;;;;;2.80;1.17;;;;;;;5.09;66.79;152668.59;5003348;28;20448;-82
2023/03/27 10:48:51;;;;;;;1.77;1.20;;;;;;;5.11;64.30;152675.03;5001646;28;20460;-81
2023/03/27 10:51:33;;;;;;;2.60;1.37;;;;;;;5.29;72.39;152720.19;5022970;28;20455;-82
2023/03/27 10:54:07;;;;;;;1.60;1.23;;;;;;;5.45;67.11;152761.44;5019025;28;20864;-82
2023/03/27 10:56:47;;;;;;;3.97;1.40;;;;;;;5.52;69.55;152780.78;5019653;28;20592;-82
2023/03/27 10:59:16;;;;;;;1.63;1.40;;;;;;;5.56;64.62;152788.50;5003429;28;20445;-82
2023/03/27 11:01:46;;;;;;;3.20;1.87;;;;;;;5.52;69.20;152779.47;5020318;28;20451;-82
2023/03/27 11:04:19;;;;;;;1.70;1.37;;;;;;;5.47;65.39;152767.88;5017040;28;20457;-82
2023/03/27 11:06:56;;;;;;;1.67;1.30;;;;;;;5.48;65.12;152769.19;5000481;28;20461;-82
2023/03/27 11:09:29;;;;;;;4.10;1.80;;;;;;;5.56;65.42;152789.75;5008679;28;20490;-82
2023/03/27 11:12:06;;;;;;;4.63;2.13;;;;;;;5.56;69.65;152788.50;5002554;28;20828;-82
2023/03/27 11:14:42;;;;;;;6.20;2.30;;;;;;;5.50;68.16;152774.31;5004517;28;20459;-82
2023/03/27 11:17:14;;;;;;;2.67;1.63;;;;;;;5.44;71.97;152760.13;5019713;28;20906;-82
2023/03/27 11:20:22;;;;;;;2.20;1.60;;;;;;;5.49;67.75;152773.03;4993939;28;20460;-82
2023/03/27 11:23:13;;;;;;;2.20;1.43;;;;;;;5.59;70.95;152797.50;5002486;28;20485;-75
2023/03/27 11:25:52;;;;;;;2.60;1.60;;;;;;;5.66;69.41;152815.59;5000216;28;20452;-77
2023/03/27 11:28:25;;;;;;;2.87;1.50;;;;;;;5.73;72.37;152833.63;5017270;28;20453;-77
2023/03/27 11:30:56;;;;;;;3.83;1.60;;;;;;;5.85;66.77;152863.38;5000105;28;20465;-75
2023/03/27 11:33:31;;;;;;;3.50;1.60;;;;;;;5.73;58.05;152833.63;5033323;28;20527;-77
2023/03/27 11:36:20;;;;;;;1.97;1.40;;;;;;;5.56;58.11;152789.75;5004841;28;20641;-76
2023/03/27 11:39:12;;;;;;;1.80;1.30;;;;;;;5.63;63.96;152807.84;5001243;28;20456;-76
2023/03/27 11:41:49;;;;;;;3.47;1.33;;;;;;;5.64;66.02;152809.16;5000556;28;20502;-76
2023/03/27 11:44:15;;;;;;;4.40;1.43;;;;;;;5.67;68.23;152816.84;5013359;28;20507;-76
2023/03/27 11:47:10;;;;;;;3.50;1.80;;;;;;;5.69;66.40;152823.34;5015073;28;20578;-76
2023/03/27 11:49:53;;;;;;;3.53;1.50;;;;;;;5.65;69.39;152813.00;5001780;28;20483;-76
2023/03/27 11:52:29;;;;;;;2.87;1.60;;;;;;;5.71;73.93;152828.47;5016141;28;20456;-77
2023/03/27 11:55:07;;;;;;;2.80;1.50;;;;;;;5.65;72.26;152813.00;5014107;28;20453;-76
2023/03/27 11:57:43;;;;;;;4.03;1.73;;;;;;;5.54;71.17;152784.63;5017228;28;20475;-77